createdAt,value
2019-01-20T00:00:37.896Z,12.98
2019-01-20T00:03:10.092Z,12.20
2019-01-20T00:05:42.320Z,12.75
2019-01-20T00:08:15.055Z,12.53
2019-01-20T00:10:47.324Z,14.33
2019-01-20T00:13:19.837Z,11.93
2019-01-20T00:15:52.027Z,12.35
2019-01-20T00:18:24.067Z,13.75
2019-01-20T00:20:56.319Z,13.08
2019-01-20T00:23:28.842Z,11.95
2019-01-20T00:26:00.853Z,13.15
2019-01-20T00:28:32.816Z,11.85
2019-01-20T00:31:04.836Z,13.05
2019-01-20T00:33:36.805Z,13.80
2019-01-20T00:36:08.828Z,12.98
2019-01-20T00:38:40.884Z,13.35
2019-01-20T00:41:12.819Z,13.62
2019-01-20T00:43:44.852Z,13.30
2019-01-20T00:46:16.818Z,12.73
2019-01-20T00:48:48.814Z,13.28
2019-01-20T00:51:21.292Z,14.45
2019-01-20T00:53:53.884Z,14.95
2019-01-20T00:56:26.325Z,13.98
2019-01-20T00:58:59.598Z,14.07
2019-01-20T01:01:31.877Z,12.60
2019-01-20T01:04:03.831Z,12.35
2019-01-20T01:06:35.893Z,14.47
2019-01-20T01:09:10.903Z,14.78
2019-01-20T01:11:42.926Z,12.68
2019-01-20T01:14:15.353Z,14.60
2019-01-20T01:16:47.873Z,12.00
2019-01-20T01:19:19.870Z,13.13
2019-01-20T01:21:51.869Z,14.05
2019-01-20T01:24:23.857Z,11.83
2019-01-20T01:26:55.850Z,13.50
2019-01-20T01:29:27.858Z,13.48
2019-01-20T01:32:00.050Z,12.20
2019-01-20T01:34:31.886Z,13.22
2019-01-20T01:37:03.861Z,14.35
2019-01-20T01:39:35.858Z,11.28
2019-01-20T01:42:07.881Z,13.25
2019-01-20T01:44:39.855Z,13.72
2019-01-20T01:47:10.507Z,14.87
2019-01-20T01:49:42.850Z,14.15
2019-01-20T01:52:15.321Z,14.40
2019-01-20T01:54:47.526Z,13.10
2019-01-20T01:57:19.910Z,13.08
2019-01-20T01:59:51.912Z,13.80
2019-01-20T02:02:24.041Z,13.03
2019-01-20T02:04:56.186Z,13.48
2019-01-20T02:07:29.838Z,15.70
2019-01-20T02:10:01.793Z,14.43
2019-01-20T02:12:33.860Z,14.20
2019-01-20T02:16:55.385Z,14.40
2019-01-20T02:19:27.046Z,11.68
2019-01-20T02:21:58.781Z,13.00
2019-01-20T02:27:01.307Z,13.88
2019-01-20T02:32:16.337Z,13.30
2019-01-20T02:34:48.673Z,14.15
2019-01-20T02:37:20.844Z,15.63
2019-01-20T02:39:53.326Z,14.18
2019-01-20T02:42:25.413Z,13.43
2019-01-20T02:44:57.869Z,14.85
2019-01-20T02:47:30.015Z,13.58
2019-01-20T02:50:01.898Z,14.53
2019-01-20T02:52:34.371Z,13.40
2019-01-20T02:55:06.857Z,12.13
2019-01-20T02:57:38.924Z,13.90
2019-01-20T03:03:05.670Z,14.40
2019-01-20T03:05:37.974Z,14.90
2019-01-20T03:08:10.104Z,14.30
2019-01-20T03:10:42.333Z,16.10
2019-01-20T03:13:14.622Z,12.68
2019-01-20T03:15:46.514Z,13.50
2019-01-20T03:18:17.993Z,11.95
2019-01-20T03:20:50.329Z,15.40
2019-01-20T03:23:22.832Z,15.03
2019-01-20T03:25:54.830Z,12.55
2019-01-20T03:28:26.897Z,12.68
2019-01-20T03:30:58.857Z,13.75
2019-01-20T03:33:30.922Z,13.03
2019-01-20T03:36:03.327Z,15.45
2019-01-20T03:38:35.858Z,12.68
2019-01-20T03:41:07.826Z,14.15
2019-01-20T03:43:40.463Z,13.65
2019-01-20T03:46:13.332Z,14.07
2019-01-20T03:48:45.895Z,14.93
2019-01-20T03:51:17.868Z,12.05
2019-01-20T03:53:49.877Z,13.13
2019-01-20T03:56:21.838Z,13.20
2019-01-20T03:58:53.863Z,17.50
2019-01-20T04:01:26.502Z,12.78
2019-01-20T04:03:58.602Z,12.40
2019-01-20T04:06:30.854Z,13.22
2019-01-20T04:09:04.733Z,13.13
2019-01-20T04:14:07.776Z,12.40
2019-01-20T04:16:39.850Z,12.20
2019-01-20T04:19:11.892Z,13.43
2019-01-20T04:21:43.862Z,11.93
2019-01-20T04:24:15.820Z,11.85
2019-01-20T04:26:47.791Z,11.97
2019-01-20T04:29:21.327Z,12.88
2019-01-20T04:31:53.943Z,12.68
2019-01-20T04:34:25.877Z,11.97
2019-01-20T04:36:58.041Z,13.28
2019-01-20T04:39:29.914Z,14.18
2019-01-20T04:42:01.834Z,13.05
2019-01-20T04:44:33.820Z,14.07
2019-01-20T04:47:05.841Z,14.53
2019-01-20T04:49:37.901Z,11.95
2019-01-20T04:52:09.846Z,11.93
2019-01-20T04:54:43.349Z,12.63
2019-01-20T04:57:17.564Z,12.10
2019-01-20T04:59:49.838Z,12.15
2019-01-20T05:02:21.868Z,14.07
2019-01-20T05:04:53.904Z,11.75
2019-01-20T05:07:25.942Z,12.37
2019-01-20T05:09:57.843Z,15.50
2019-01-20T05:12:37.269Z,13.13
2019-01-20T05:15:03.278Z,13.22
2019-01-20T05:17:35.535Z,11.35
2019-01-20T05:20:09.002Z,12.73
2019-01-20T05:22:40.869Z,11.28
2019-01-20T05:25:13.023Z,12.25
2019-01-20T05:27:44.855Z,12.35
2019-01-20T05:30:24.451Z,13.43
2019-01-20T05:32:57.083Z,12.15
2019-01-20T05:35:29.329Z,13.13
2019-01-20T05:38:01.471Z,13.62
2019-01-20T05:40:33.717Z,14.23
2019-01-20T05:43:06.143Z,12.78
2019-01-20T05:45:38.504Z,14.03
2019-01-20T05:48:11.112Z,12.55
2019-01-20T05:50:44.828Z,13.55
2019-01-20T05:53:17.327Z,11.83
2019-01-20T05:55:49.881Z,14.18
2019-01-20T05:58:21.828Z,13.25
2019-01-20T06:00:53.915Z,13.20
2019-01-20T06:03:25.915Z,16.30
2019-01-20T06:05:57.850Z,15.55
2019-01-20T06:08:30.333Z,16.55
2019-01-20T06:11:02.904Z,15.00
2019-01-20T06:13:35.110Z,16.73
2019-01-20T06:16:07.863Z,16.25
2019-01-20T06:18:39.849Z,14.70
2019-01-20T06:21:11.881Z,15.28
2019-01-20T06:23:43.891Z,15.32
2019-01-20T06:26:15.882Z,14.93
2019-01-20T06:28:47.921Z,14.85
2019-01-20T06:31:19.867Z,14.60
2019-01-20T06:33:51.827Z,15.10
2019-01-20T06:36:23.887Z,15.75
2019-01-20T06:38:56.333Z,15.20
2019-01-20T06:41:28.484Z,15.48
2019-01-20T06:44:00.849Z,15.18
2019-01-20T06:46:32.911Z,15.38
2019-01-20T06:49:04.860Z,14.95
2019-01-20T06:51:37.016Z,15.93
2019-01-20T06:54:09.106Z,16.42
2019-01-20T06:56:41.393Z,15.65
2019-01-20T06:59:13.568Z,15.75
2019-01-20T07:01:45.998Z,15.18
2019-01-20T07:04:18.332Z,15.53
2019-01-20T07:06:51.081Z,16.75
2019-01-20T07:09:23.847Z,13.65
2019-01-20T07:11:56.083Z,14.47
2019-01-20T07:14:28.530Z,12.58
2019-01-20T07:17:00.904Z,14.53
2019-01-20T07:19:32.846Z,14.18
2019-01-20T07:22:05.100Z,13.00
2019-01-20T07:24:37.521Z,11.10
2019-01-20T07:27:09.919Z,13.35
2019-01-20T07:29:41.930Z,12.20
2019-01-20T07:32:13.897Z,13.85
2019-01-20T07:34:46.476Z,13.00
2019-01-20T07:37:20.072Z,12.50
2019-01-20T07:39:53.353Z,13.65
2019-01-20T07:42:25.975Z,14.55
2019-01-20T07:44:57.927Z,11.95
2019-01-20T07:47:30.107Z,12.85
2019-01-20T07:50:02.426Z,13.10
2019-01-20T07:52:34.944Z,14.20
2019-01-20T07:55:08.334Z,13.20
2019-01-20T07:57:40.906Z,18.70
2019-01-20T08:00:18.402Z,16.80
2019-01-20T08:02:50.892Z,18.62
2019-01-20T08:05:23.664Z,18.48
2019-01-20T08:07:56.006Z,17.55
2019-01-20T08:10:31.419Z,17.10
2019-01-20T08:13:03.822Z,16.75
2019-01-20T08:15:35.868Z,17.17
2019-01-20T08:18:08.435Z,16.10
2019-01-20T08:20:40.853Z,16.27
2019-01-20T08:23:12.865Z,18.37
2019-01-20T08:25:44.841Z,17.32
2019-01-20T08:28:16.822Z,15.32
2019-01-20T08:30:48.818Z,15.85
2019-01-20T08:33:20.849Z,14.33
2019-01-20T08:35:52.984Z,14.53
2019-01-20T08:38:25.323Z,14.40
2019-01-20T08:40:58.323Z,13.85
2019-01-20T08:43:32.444Z,13.48
2019-01-20T08:47:09.838Z,12.15
2019-01-20T08:49:41.919Z,13.28
2019-01-20T08:52:14.326Z,12.20
2019-01-20T08:54:46.862Z,12.70
2019-01-20T08:57:19.328Z,15.95
2019-01-20T08:59:51.835Z,12.80
2019-01-20T09:02:24.097Z,12.07
2019-01-20T09:04:56.363Z,12.88
2019-01-20T09:07:28.929Z,13.48
2019-01-20T09:10:00.928Z,11.78
2019-01-20T09:12:34.090Z,11.85
2019-01-20T09:15:07.288Z,11.53
2019-01-20T09:17:40.330Z,12.23
2019-01-20T09:20:13.314Z,14.80
2019-01-20T09:22:45.326Z,15.75
2019-01-20T09:25:17.900Z,13.83
2019-01-20T09:27:50.498Z,14.95
2019-01-20T09:30:23.903Z,16.23
2019-01-20T09:32:56.111Z,14.30
2019-01-20T09:35:28.928Z,13.10
2019-01-20T09:38:01.927Z,15.08
2019-01-20T09:40:34.599Z,13.53
2019-01-20T09:43:06.869Z,17.10
2019-01-20T09:45:39.347Z,15.03
2019-01-20T09:48:11.934Z,15.50
2019-01-20T09:50:44.282Z,16.35
2019-01-20T09:53:17.068Z,13.18
2019-01-20T09:55:51.920Z,12.78
2019-01-20T09:58:24.064Z,13.00
2019-01-20T10:00:56.167Z,13.50
2019-01-20T10:03:28.411Z,12.75
2019-01-20T10:06:00.891Z,13.35
2019-01-20T10:08:33.008Z,13.10
2019-01-20T10:11:05.277Z,12.95
2019-01-20T10:13:37.859Z,13.83
2019-01-20T10:16:09.882Z,13.28
2019-01-20T10:18:41.916Z,15.48
2019-01-20T10:21:13.741Z,14.55
2019-01-20T10:26:16.518Z,13.90
2019-01-20T10:28:48.366Z,13.48
2019-01-20T10:31:20.300Z,12.70
2019-01-20T10:33:51.836Z,13.62
2019-01-20T10:36:23.380Z,14.78
2019-01-20T10:38:55.306Z,11.88
2019-01-20T10:41:27.390Z,12.75
2019-01-20T10:44:02.347Z,12.40
2019-01-20T10:46:33.065Z,12.30
2019-01-20T10:49:05.359Z,11.48
2019-01-20T10:51:37.306Z,12.03
2019-01-20T10:54:08.868Z,12.53
2019-01-20T10:56:40.722Z,13.22
2019-01-20T11:01:44.021Z,11.95
2019-01-20T11:04:15.673Z,12.00
2019-01-20T11:06:47.389Z,13.83
2019-01-20T11:09:19.292Z,12.88
2019-01-20T11:11:52.317Z,11.65
2019-01-20T11:14:23.864Z,13.65
2019-01-20T11:16:55.721Z,13.50
2019-01-20T11:21:58.297Z,13.50
2019-01-20T11:24:30.058Z,11.95
2019-01-20T11:27:01.756Z,12.60
2019-01-20T11:29:33.773Z,11.10
2019-01-20T11:34:36.626Z,12.55
2019-01-20T11:37:08.389Z,13.00
2019-01-20T11:39:40.301Z,12.20
2019-01-20T11:42:13.024Z,11.60
2019-01-20T11:44:44.806Z,13.48
2019-01-20T11:47:18.268Z,11.05
2019-01-20T11:49:50.328Z,11.95
2019-01-20T11:52:21.943Z,11.63
2019-01-20T11:54:53.758Z,11.38
2019-01-20T11:59:57.310Z,12.70
2019-01-20T12:02:28.853Z,11.20
2019-01-20T12:05:00.408Z,12.53
2019-01-20T12:07:34.309Z,12.88
2019-01-20T12:10:07.306Z,10.53
2019-01-20T12:12:39.425Z,12.28
2019-01-20T12:15:13.345Z,12.68
2019-01-20T12:17:46.335Z,11.48
2019-01-20T12:20:17.940Z,12.25
2019-01-20T12:22:49.753Z,12.28
2019-01-20T12:27:55.333Z,11.90
2019-01-20T12:30:30.445Z,12.98
2019-01-20T12:33:02.309Z,12.28
2019-01-20T12:35:34.042Z,13.25
2019-01-20T12:38:05.812Z,11.93
2019-01-20T12:40:42.832Z,11.75
2019-01-20T12:43:14.751Z,13.13
2019-01-20T12:48:17.274Z,10.50
2019-01-20T12:50:49.340Z,11.75
2019-01-20T12:53:21.065Z,10.40
2019-01-20T12:55:52.774Z,11.48
2019-01-20T13:03:26.344Z,13.78
2019-01-20T13:05:58.386Z,13.58
2019-01-20T13:08:30.777Z,15.05
2019-01-20T13:13:33.638Z,14.07
2019-01-20T13:16:05.350Z,13.28
2019-01-20T13:18:37.353Z,13.38
2019-01-20T13:21:09.029Z,12.90
2019-01-20T13:23:41.349Z,14.78
2019-01-20T13:26:13.060Z,13.55
2019-01-20T13:28:44.886Z,14.10
2019-01-20T13:31:16.738Z,15.40
2019-01-20T13:36:19.818Z,14.50
2019-01-20T13:38:51.732Z,13.85
2019-01-20T13:44:01.937Z,14.15
2019-01-20T13:46:33.736Z,13.38
2019-01-20T13:51:36.313Z,14.00
2019-01-20T13:54:07.911Z,13.68
2019-01-20T13:56:39.775Z,14.28
2019-01-20T14:01:42.374Z,13.30
2019-01-20T14:04:14.777Z,12.00
2019-01-20T14:06:46.389Z,12.30
2019-01-20T14:09:18.268Z,12.75
2019-01-20T14:11:50.058Z,12.18
2019-01-20T14:14:21.756Z,11.38
2019-01-20T14:19:24.314Z,12.35
2019-01-20T14:21:55.911Z,11.10
2019-01-20T14:24:27.728Z,12.45
2019-01-20T14:32:01.741Z,11.15
2019-01-20T14:39:35.745Z,11.10
2019-01-20T14:44:38.320Z,11.90
2019-01-20T14:47:09.914Z,13.95
2019-01-20T14:49:41.754Z,13.58
2019-01-20T14:54:44.383Z,14.25
2019-01-20T14:57:16.021Z,15.45
2019-01-20T14:59:47.756Z,14.25
2019-01-20T15:04:50.732Z,13.32
2019-01-20T15:09:53.321Z,11.90
2019-01-20T15:12:24.888Z,13.75
2019-01-20T15:14:56.418Z,11.08
2019-01-20T15:17:28.437Z,10.65
2019-01-20T15:20:00.180Z,10.63
2019-01-20T15:22:31.775Z,10.43
2019-01-20T15:27:34.313Z,9.38
2019-01-20T15:30:08.767Z,10.20
2019-01-20T15:32:40.386Z,11.10
2019-01-20T15:35:12.318Z,10.65
2019-01-20T15:37:43.911Z,11.10
2019-01-20T15:40:17.801Z,11.28
2019-01-20T15:42:49.717Z,10.90
2019-01-20T15:47:53.800Z,9.40
2019-01-20T15:50:32.379Z,12.00
2019-01-20T15:53:04.314Z,11.78
2019-01-20T15:55:35.825Z,15.65
2019-01-20T15:58:07.874Z,16.25
2019-01-20T16:00:39.727Z,15.05
2019-01-20T16:05:42.311Z,16.52
2019-01-20T16:08:13.917Z,16.27
2019-01-20T16:10:45.687Z,16.32
2019-01-20T16:15:48.490Z,15.83
2019-01-20T16:18:20.724Z,15.75
2019-01-20T16:20:52.633Z,14.30
2019-01-20T16:23:24.394Z,13.15
2019-01-20T16:25:56.063Z,12.37
2019-01-20T16:28:27.779Z,12.43
2019-01-20T16:33:30.382Z,13.28
2019-01-20T16:36:02.426Z,12.50
2019-01-20T16:38:34.313Z,12.75
2019-01-20T16:41:06.071Z,17.02
2019-01-20T16:43:37.744Z,14.47
2019-01-20T16:48:40.631Z,11.75
2019-01-20T16:51:12.356Z,11.68
2019-01-20T16:53:44.786Z,12.85
2019-01-20T16:58:51.456Z,11.65
2019-01-20T17:01:21.786Z,12.82
2019-01-20T17:06:24.494Z,12.25
2019-01-20T17:08:56.318Z,12.85
2019-01-20T17:11:28.380Z,17.70
2019-01-20T17:14:00.067Z,20.32
2019-01-20T17:16:31.756Z,18.30
2019-01-20T17:21:34.398Z,18.70
2019-01-20T17:24:06.372Z,18.80
2019-01-20T17:26:38.066Z,19.45
2019-01-20T17:29:09.775Z,19.82
2019-01-20T17:34:12.302Z,22.30
2019-01-20T17:36:44.026Z,21.40
2019-01-20T17:39:15.750Z,19.85
2019-01-20T17:44:18.304Z,17.82
2019-01-20T17:46:49.843Z,16.50
2019-01-20T17:49:21.592Z,16.90
2019-01-20T17:51:53.249Z,15.93
2019-01-20T17:54:24.699Z,14.85
2019-01-20T17:59:27.736Z,16.32
2019-01-20T18:04:30.273Z,13.50
2019-01-20T18:07:01.885Z,18.40
2019-01-20T18:09:33.658Z,15.65
2019-01-20T18:12:05.405Z,15.30
2019-01-20T18:14:37.030Z,14.10
2019-01-20T18:17:08.804Z,16.40
2019-01-20T18:22:11.377Z,16.87
2019-01-20T18:26:21.520Z,16.80
2019-01-20T18:28:53.858Z,15.60
2019-01-20T18:31:26.119Z,17.90
2019-01-20T18:33:58.494Z,14.58
2019-01-20T18:36:31.097Z,16.48
2019-01-20T18:39:03.464Z,16.05
2019-01-20T18:41:35.914Z,16.07
2019-01-20T18:44:07.826Z,18.92
2019-01-20T18:46:40.438Z,21.17
2019-01-20T18:49:12.884Z,23.73
2019-01-20T18:51:45.323Z,23.07
2019-01-20T18:54:18.289Z,24.63
2019-01-20T18:56:51.030Z,23.38
2019-01-20T18:59:23.395Z,23.67
2019-01-20T19:01:56.030Z,26.02
2019-01-20T19:04:28.377Z,25.02
2019-01-20T19:07:00.970Z,24.35
2019-01-20T19:09:33.877Z,26.62
2019-01-20T19:12:05.865Z,25.05
2019-01-20T19:14:38.383Z,25.90
2019-01-20T19:17:11.357Z,25.62
2019-01-20T19:19:44.002Z,24.55
2019-01-20T19:22:16.326Z,25.05
2019-01-20T19:24:48.867Z,23.62
2019-01-20T19:27:21.356Z,23.25
2019-01-20T19:29:54.060Z,20.70
2019-01-20T19:32:27.025Z,21.17
2019-01-20T19:34:59.842Z,17.77
2019-01-20T19:37:32.074Z,17.70
2019-01-20T19:40:04.865Z,19.30
2019-01-20T19:42:37.724Z,16.90
2019-01-20T19:47:44.310Z,14.83
2019-01-20T19:50:17.339Z,16.93
2019-01-20T19:52:49.912Z,14.63
2019-01-20T19:55:29.960Z,15.05
2019-01-20T19:58:02.595Z,16.60
2019-01-20T20:00:36.317Z,15.63
2019-01-20T20:03:08.922Z,15.23
2019-01-20T20:05:40.919Z,14.73
2019-01-20T20:08:13.020Z,15.60
2019-01-20T20:10:45.368Z,15.30
2019-01-20T20:13:17.903Z,15.48
2019-01-20T20:16:41.814Z,16.30
2019-01-20T20:19:14.338Z,15.93
2019-01-20T20:21:46.875Z,19.48
2019-01-20T20:24:25.303Z,19.15
2019-01-20T20:26:53.843Z,19.87
2019-01-20T20:29:25.885Z,18.77
2019-01-20T20:31:57.826Z,18.73
2019-01-20T20:34:29.808Z,18.23
2019-01-20T20:37:01.856Z,18.00
2019-01-20T20:39:33.819Z,21.85
2019-01-20T20:42:06.031Z,21.17
2019-01-20T20:44:38.066Z,20.08
2019-01-20T20:47:10.323Z,19.95
2019-01-20T20:49:42.991Z,18.35
2019-01-20T20:52:15.305Z,19.98
2019-01-20T20:54:48.341Z,19.80
2019-01-20T20:57:20.830Z,20.10
2019-01-20T20:59:53.346Z,19.82
2019-01-20T21:02:26.014Z,21.55
2019-01-20T21:04:58.317Z,19.90
2019-01-20T21:07:30.897Z,18.27
2019-01-20T21:10:03.045Z,19.67
2019-01-20T21:12:35.367Z,18.48
2019-01-20T21:15:09.509Z,19.02
2019-01-20T21:17:48.178Z,18.15
2019-01-20T21:20:20.317Z,17.75
2019-01-20T21:22:52.870Z,17.32
2019-01-20T21:25:25.318Z,18.12
2019-01-20T21:27:57.816Z,18.98
2019-01-20T21:30:30.831Z,19.15
2019-01-20T21:33:02.873Z,18.90
2019-01-20T21:35:35.088Z,18.25
2019-01-20T21:38:07.307Z,17.65
2019-01-20T21:40:39.846Z,17.70
2019-01-20T21:43:11.871Z,18.15
2019-01-20T21:45:44.024Z,21.70
2019-01-20T21:48:16.077Z,18.12
2019-01-20T21:50:48.361Z,19.82
2019-01-20T21:53:20.417Z,18.77
2019-01-20T21:55:53.331Z,17.87
2019-01-20T21:58:25.851Z,19.30
2019-01-20T22:00:58.313Z,19.25
2019-01-20T22:03:31.341Z,17.25
2019-01-20T22:06:03.886Z,18.10
2019-01-20T22:08:36.525Z,19.05
2019-01-20T22:11:09.351Z,18.48
2019-01-20T22:13:42.046Z,18.27
2019-01-20T22:16:14.374Z,21.30
2019-01-20T22:18:46.881Z,18.73
2019-01-20T22:21:19.074Z,17.10
2019-01-20T22:23:51.396Z,19.73
2019-01-20T22:26:23.934Z,18.42
2019-01-20T22:28:56.349Z,19.17
2019-01-20T22:31:29.017Z,20.82
2019-01-20T22:34:02.450Z,19.27
2019-01-20T22:36:35.029Z,20.80
2019-01-20T22:39:10.364Z,19.02
2019-01-20T22:41:45.033Z,18.77
2019-01-20T22:44:17.353Z,20.17
2019-01-20T22:46:49.854Z,18.85
2019-01-20T22:49:21.843Z,18.67
2019-01-20T22:51:54.285Z,18.15
2019-01-20T22:54:26.909Z,19.05
2019-01-20T22:56:59.036Z,19.02
2019-01-20T22:59:31.333Z,20.70
2019-01-20T23:02:04.922Z,19.42
2019-01-20T23:04:39.094Z,19.27
2019-01-20T23:07:11.662Z,19.55
2019-01-20T23:09:44.118Z,22.20
2019-01-20T23:12:16.808Z,21.62
2019-01-20T23:14:48.817Z,20.50
2019-01-20T23:17:20.915Z,21.48
2019-01-20T23:19:53.520Z,20.02
2019-01-20T23:22:26.135Z,20.43
2019-01-20T23:25:00.375Z,19.75
2019-01-20T23:27:35.904Z,20.92
2019-01-20T23:30:10.348Z,18.57
2019-01-20T23:32:42.893Z,19.52
2019-01-20T23:35:15.764Z,19.35
2019-01-20T23:40:19.537Z,21.23
2019-01-20T23:42:51.945Z,20.97
2019-01-20T23:45:24.109Z,19.57
2019-01-20T23:47:56.558Z,20.48
2019-01-20T23:50:28.894Z,19.30
2019-01-20T23:53:00.900Z,19.77
2019-01-20T23:55:35.261Z,21.48
2019-01-20T23:58:08.371Z,19.50
